sensor_id;sensor_type;location;lat;lon;timestamp;temperature;humidity
56298;DHT22;42208;6.376;-10.782;2023-06-22T00:00:19;24.60;99.90
56298;DHT22;42208;6.376;-10.782;2023-06-22T00:02:48;24.60;99.90
56298;DHT22;42208;6.376;-10.782;2023-06-22T00:05:16;24.60;99.90
56298;DHT22;42208;6.376;-10.782;2023-06-22T00:07:45;24.60;99.90
56298;DHT22;42208;6.376;-10.782;2023-06-22T00:10:13;24.70;99.90
56298;DHT22;42208;6.376;-10.782;2023-06-22T00:12:42;24.70;99.90
56298;DHT22;42208;6.376;-10.782;2023-06-22T00:15:11;24.60;99.90
56298;DHT22;42208;6.376;-10.782;2023-06-22T00:17:39;24.60;99.90
56298;DHT22;42208;6.376;-10.782;2023-06-22T00:20:08;24.60;99.90
56298;DHT22;42208;6.376;-10.782;2023-06-22T00:22:37;24.60;99.90
56298;DHT22;42208;6.376;-10.782;2023-06-22T00:25:09;24.60;99.90
56298;DHT22;42208;6.376;-10.782;2023-06-22T00:27:38;24.60;99.90
56298;DHT22;42208;6.376;-10.782;2023-06-22T00:30:07;24.60;99.90
56298;DHT22;42208;6.376;-10.782;2023-06-22T00:32:35;24.60;99.90
56298;DHT22;42208;6.376;-10.782;2023-06-22T00:35:04;24.60;99.90
56298;DHT22;42208;6.376;-10.782;2023-06-22T00:37:33;24.60;99.90
56298;DHT22;42208;6.376;-10.782;2023-06-22T00:40:02;24.60;99.90
56298;DHT22;42208;6.376;-10.782;2023-06-22T00:42:31;24.60;99.90
56298;DHT22;42208;6.376;-10.782;2023-06-22T00:44:59;24.60;99.90
56298;DHT22;42208;6.376;-10.782;2023-06-22T00:47:28;24.60;99.90
56298;DHT22;42208;6.376;-10.782;2023-06-22T00:49:57;24.60;99.90
56298;DHT22;42208;6.376;-10.782;2023-06-22T00:52:26;24.60;99.90
56298;DHT22;42208;6.376;-10.782;2023-06-22T00:54:56;24.60;99.90
56298;DHT22;42208;6.376;-10.782;2023-06-22T00:57:26;24.60;99.90
56298;DHT22;42208;6.376;-10.782;2023-06-22T00:59:55;24.60;99.90
56298;DHT22;42208;6.376;-10.782;2023-06-22T01:02:24;24.60;99.90
56298;DHT22;42208;6.376;-10.782;2023-06-22T01:04:52;24.60;99.90
56298;DHT22;42208;6.376;-10.782;2023-06-22T01:07:35;24.60;99.90
56298;DHT22;42208;6.376;-10.782;2023-06-22T01:10:20;24.60;99.90
56298;DHT22;42208;6.376;-10.782;2023-06-22T01:12:53;24.60;99.90
56298;DHT22;42208;6.376;-10.782;2023-06-22T01:15:40;24.60;99.90
56298;DHT22;42208;6.376;-10.782;2023-06-22T01:18:13;24.60;99.90
56298;DHT22;42208;6.376;-10.782;2023-06-22T01:20:44;24.50;99.90
56298;DHT22;42208;6.376;-10.782;2023-06-22T01:28:52;24.60;99.90
56298;DHT22;42208;6.376;-10.782;2023-06-22T01:31:27;24.60;99.90
56298;DHT22;42208;6.376;-10.782;2023-06-22T01:34:00;24.50;99.90
56298;DHT22;42208;6.376;-10.782;2023-06-22T01:36:31;24.50;99.90
56298;DHT22;42208;6.376;-10.782;2023-06-22T01:39:01;24.50;99.90
56298;DHT22;42208;6.376;-10.782;2023-06-22T01:41:34;24.50;99.90
56298;DHT22;42208;6.376;-10.782;2023-06-22T01:44:05;24.50;99.90
56298;DHT22;42208;6.376;-10.782;2023-06-22T01:46:35;24.40;99.90
56298;DHT22;42208;6.376;-10.782;2023-06-22T01:49:04;24.40;99.90
56298;DHT22;42208;6.376;-10.782;2023-06-22T01:51:33;24.50;99.90
56298;DHT22;42208;6.376;-10.782;2023-06-22T01:54:02;24.50;99.90
56298;DHT22;42208;6.376;-10.782;2023-06-22T01:56:30;24.50;99.90
56298;DHT22;42208;6.376;-10.782;2023-06-22T02:01:47;24.50;99.90
56298;DHT22;42208;6.376;-10.782;2023-06-22T02:04:28;24.50;99.90
56298;DHT22;42208;6.376;-10.782;2023-06-22T02:07:00;24.50;99.90
56298;DHT22;42208;6.376;-10.782;2023-06-22T02:09:31;24.50;99.90
56298;DHT22;42208;6.376;-10.782;2023-06-22T02:12:00;24.50;99.90
56298;DHT22;42208;6.376;-10.782;2023-06-22T02:14:31;24.50;99.90
56298;DHT22;42208;6.376;-10.782;2023-06-22T02:16:59;24.50;99.90
56298;DHT22;42208;6.376;-10.782;2023-06-22T02:19:28;24.50;99.90
56298;DHT22;42208;6.376;-10.782;2023-06-22T02:21:56;24.50;99.90
56298;DHT22;42208;6.376;-10.782;2023-06-22T02:24:25;24.50;99.90
56298;DHT22;42208;6.376;-10.782;2023-06-22T02:26:54;24.50;99.90
56298;DHT22;42208;6.376;-10.782;2023-06-22T02:29:22;24.50;99.90
56298;DHT22;42208;6.376;-10.782;2023-06-22T02:31:51;24.50;99.90
56298;DHT22;42208;6.376;-10.782;2023-06-22T02:34:19;24.40;99.90
56298;DHT22;42208;6.376;-10.782;2023-06-22T02:36:48;24.40;99.90
56298;DHT22;42208;6.376;-10.782;2023-06-22T02:39:23;24.50;99.90
56298;DHT22;42208;6.376;-10.782;2023-06-22T02:41:55;24.40;99.90
56298;DHT22;42208;6.376;-10.782;2023-06-22T02:44:23;24.50;99.90
56298;DHT22;42208;6.376;-10.782;2023-06-22T02:46:52;24.50;99.90
56298;DHT22;42208;6.376;-10.782;2023-06-22T02:49:20;24.50;99.90
56298;DHT22;42208;6.376;-10.782;2023-06-22T02:51:49;24.40;99.90
56298;DHT22;42208;6.376;-10.782;2023-06-22T02:54:20;24.50;99.90
56298;DHT22;42208;6.376;-10.782;2023-06-22T02:56:51;24.50;99.90
56298;DHT22;42208;6.376;-10.782;2023-06-22T02:59:21;24.50;99.90
56298;DHT22;42208;6.376;-10.782;2023-06-22T03:01:52;24.50;99.90
56298;DHT22;42208;6.376;-10.782;2023-06-22T03:04:26;24.50;99.90
56298;DHT22;42208;6.376;-10.782;2023-06-22T03:06:54;24.50;99.90
56298;DHT22;42208;6.376;-10.782;2023-06-22T03:09:23;24.50;99.90
56298;DHT22;42208;6.376;-10.782;2023-06-22T03:11:51;24.50;99.90
56298;DHT22;42208;6.376;-10.782;2023-06-22T03:14:21;24.50;99.90
56298;DHT22;42208;6.376;-10.782;2023-06-22T03:16:52;24.50;99.90
56298;DHT22;42208;6.376;-10.782;2023-06-22T03:19:21;24.50;99.90
56298;DHT22;42208;6.376;-10.782;2023-06-22T03:21:49;24.60;99.90
56298;DHT22;42208;6.376;-10.782;2023-06-22T03:24:18;24.60;99.90
56298;DHT22;42208;6.376;-10.782;2023-06-22T03:26:46;24.60;99.90
56298;DHT22;42208;6.376;-10.782;2023-06-22T03:29:15;24.60;99.90
56298;DHT22;42208;6.376;-10.782;2023-06-22T03:31:45;24.60;99.90
56298;DHT22;42208;6.376;-10.782;2023-06-22T03:34:14;24.50;99.90
56298;DHT22;42208;6.376;-10.782;2023-06-22T03:36:43;24.50;99.90
56298;DHT22;42208;6.376;-10.782;2023-06-22T03:39:11;24.50;99.90
56298;DHT22;42208;6.376;-10.782;2023-06-22T03:41:41;24.50;99.90
56298;DHT22;42208;6.376;-10.782;2023-06-22T03:44:09;24.50;99.90
56298;DHT22;42208;6.376;-10.782;2023-06-22T03:46:38;24.50;99.90
56298;DHT22;42208;6.376;-10.782;2023-06-22T03:49:07;24.50;99.90
56298;DHT22;42208;6.376;-10.782;2023-06-22T03:51:35;24.50;99.90
56298;DHT22;42208;6.376;-10.782;2023-06-22T03:54:04;24.50;99.90
56298;DHT22;42208;6.376;-10.782;2023-06-22T03:56:32;24.50;99.90
56298;DHT22;42208;6.376;-10.782;2023-06-22T03:59:01;24.50;99.90
56298;DHT22;42208;6.376;-10.782;2023-06-22T04:01:29;24.50;99.90
56298;DHT22;42208;6.376;-10.782;2023-06-22T04:03:58;24.50;99.90
56298;DHT22;42208;6.376;-10.782;2023-06-22T04:06:27;24.50;99.90
56298;DHT22;42208;6.376;-10.782;2023-06-22T04:08:55;24.50;99.90
56298;DHT22;42208;6.376;-10.782;2023-06-22T04:11:24;24.50;99.90
56298;DHT22;42208;6.376;-10.782;2023-06-22T04:13:52;24.50;99.90
56298;DHT22;42208;6.376;-10.782;2023-06-22T04:16:21;24.50;99.90
56298;DHT22;42208;6.376;-10.782;2023-06-22T04:18:49;24.40;99.90
56298;DHT22;42208;6.376;-10.782;2023-06-22T04:21:18;24.50;99.90
56298;DHT22;42208;6.376;-10.782;2023-06-22T04:23:47;24.50;99.90
56298;DHT22;42208;6.376;-10.782;2023-06-22T04:26:15;24.40;99.90
56298;DHT22;42208;6.376;-10.782;2023-06-22T04:28:44;24.40;99.90
56298;DHT22;42208;6.376;-10.782;2023-06-22T04:31:12;24.40;99.90
56298;DHT22;42208;6.376;-10.782;2023-06-22T04:33:41;24.40;99.90
56298;DHT22;42208;6.376;-10.782;2023-06-22T04:36:09;24.40;99.90
56298;DHT22;42208;6.376;-10.782;2023-06-22T04:38:38;24.40;99.90
56298;DHT22;42208;6.376;-10.782;2023-06-22T04:41:06;24.40;99.90
56298;DHT22;42208;6.376;-10.782;2023-06-22T04:43:34;24.40;99.90
56298;DHT22;42208;6.376;-10.782;2023-06-22T04:46:03;24.40;99.90
56298;DHT22;42208;6.376;-10.782;2023-06-22T04:48:31;24.40;99.90
56298;DHT22;42208;6.376;-10.782;2023-06-22T04:51:01;24.40;99.90
56298;DHT22;42208;6.376;-10.782;2023-06-22T04:53:30;24.40;99.90
56298;DHT22;42208;6.376;-10.782;2023-06-22T04:55:59;24.40;99.90
56298;DHT22;42208;6.376;-10.782;2023-06-22T04:58:27;24.40;99.90
56298;DHT22;42208;6.376;-10.782;2023-06-22T05:00:55;24.40;99.90
56298;DHT22;42208;6.376;-10.782;2023-06-22T05:03:25;24.40;99.90
56298;DHT22;42208;6.376;-10.782;2023-06-22T05:05:54;24.40;99.90
56298;DHT22;42208;6.376;-10.782;2023-06-22T05:08:23;24.40;99.90
56298;DHT22;42208;6.376;-10.782;2023-06-22T05:10:51;24.40;99.90
56298;DHT22;42208;6.376;-10.782;2023-06-22T05:13:32;24.40;99.90
56298;DHT22;42208;6.376;-10.782;2023-06-22T05:16:01;24.40;99.90
56298;DHT22;42208;6.376;-10.782;2023-06-22T05:18:31;24.40;99.90
56298;DHT22;42208;6.376;-10.782;2023-06-22T05:21:00;24.40;99.90
56298;DHT22;42208;6.376;-10.782;2023-06-22T05:23:28;24.30;99.90
56298;DHT22;42208;6.376;-10.782;2023-06-22T05:25:57;24.40;99.90
56298;DHT22;42208;6.376;-10.782;2023-06-22T05:28:26;24.40;99.90
56298;DHT22;42208;6.376;-10.782;2023-06-22T05:30:55;24.40;99.90
56298;DHT22;42208;6.376;-10.782;2023-06-22T05:33:23;24.40;99.90
56298;DHT22;42208;6.376;-10.782;2023-06-22T05:35:51;24.40;99.90
56298;DHT22;42208;6.376;-10.782;2023-06-22T05:38:21;24.40;99.90
56298;DHT22;42208;6.376;-10.782;2023-06-22T05:40:49;24.40;99.90
56298;DHT22;42208;6.376;-10.782;2023-06-22T05:43:17;24.30;99.90
56298;DHT22;42208;6.376;-10.782;2023-06-22T05:45:46;24.30;99.90
56298;DHT22;42208;6.376;-10.782;2023-06-22T05:48:14;24.20;99.90
56298;DHT22;42208;6.376;-10.782;2023-06-22T05:50:43;24.20;99.90
56298;DHT22;42208;6.376;-10.782;2023-06-22T05:53:11;24.30;99.90
56298;DHT22;42208;6.376;-10.782;2023-06-22T05:55:40;24.30;99.90
56298;DHT22;42208;6.376;-10.782;2023-06-22T05:58:08;24.30;99.90
56298;DHT22;42208;6.376;-10.782;2023-06-22T06:00:37;24.30;99.90
56298;DHT22;42208;6.376;-10.782;2023-06-22T06:03:07;24.30;99.90
56298;DHT22;42208;6.376;-10.782;2023-06-22T06:05:36;24.30;99.90
56298;DHT22;42208;6.376;-10.782;2023-06-22T06:08:06;24.30;99.90
56298;DHT22;42208;6.376;-10.782;2023-06-22T06:10:35;24.30;99.90
56298;DHT22;42208;6.376;-10.782;2023-06-22T06:13:04;24.30;99.90
56298;DHT22;42208;6.376;-10.782;2023-06-22T06:15:34;24.30;99.90
56298;DHT22;42208;6.376;-10.782;2023-06-22T06:18:03;24.20;99.90
56298;DHT22;42208;6.376;-10.782;2023-06-22T06:20:31;24.30;99.90
56298;DHT22;42208;6.376;-10.782;2023-06-22T06:23:01;24.40;99.90
56298;DHT22;42208;6.376;-10.782;2023-06-22T06:25:29;24.40;99.90
56298;DHT22;42208;6.376;-10.782;2023-06-22T06:27:58;24.40;99.90
56298;DHT22;42208;6.376;-10.782;2023-06-22T06:30:29;24.40;99.90
56298;DHT22;42208;6.376;-10.782;2023-06-22T06:32:58;24.40;99.90
56298;DHT22;42208;6.376;-10.782;2023-06-22T06:35:27;24.40;99.90
56298;DHT22;42208;6.376;-10.782;2023-06-22T06:37:56;24.40;99.90
56298;DHT22;42208;6.376;-10.782;2023-06-22T06:40:24;24.40;99.90
56298;DHT22;42208;6.376;-10.782;2023-06-22T06:42:54;24.40;99.90
56298;DHT22;42208;6.376;-10.782;2023-06-22T06:45:24;24.30;99.90
56298;DHT22;42208;6.376;-10.782;2023-06-22T06:47:53;24.30;99.90
56298;DHT22;42208;6.376;-10.782;2023-06-22T06:50:22;24.20;99.90
56298;DHT22;42208;6.376;-10.782;2023-06-22T06:52:51;24.20;99.90
56298;DHT22;42208;6.376;-10.782;2023-06-22T06:55:19;24.20;99.90
56298;DHT22;42208;6.376;-10.782;2023-06-22T06:57:48;24.30;99.90
56298;DHT22;42208;6.376;-10.782;2023-06-22T07:00:17;24.40;99.90
56298;DHT22;42208;6.376;-10.782;2023-06-22T07:02:45;24.30;99.90
56298;DHT22;42208;6.376;-10.782;2023-06-22T07:05:14;24.40;99.90
56298;DHT22;42208;6.376;-10.782;2023-06-22T07:07:43;24.40;99.90
56298;DHT22;42208;6.376;-10.782;2023-06-22T07:12:07;24.40;99.90
56298;DHT22;42208;6.376;-10.782;2023-06-22T07:14:36;24.50;99.90
56298;DHT22;42208;6.376;-10.782;2023-06-22T07:17:04;24.50;99.90
56298;DHT22;42208;6.376;-10.782;2023-06-22T07:19:33;24.50;99.90
56298;DHT22;42208;6.376;-10.782;2023-06-22T07:22:02;24.50;99.90
56298;DHT22;42208;6.376;-10.782;2023-06-22T07:24:30;24.50;99.90
56298;DHT22;42208;6.376;-10.782;2023-06-22T07:26:59;24.50;99.90
56298;DHT22;42208;6.376;-10.782;2023-06-22T07:29:27;24.50;99.90
56298;DHT22;42208;6.376;-10.782;2023-06-22T07:31:56;24.50;99.90
56298;DHT22;42208;6.376;-10.782;2023-06-22T07:34:24;24.60;99.90
56298;DHT22;42208;6.376;-10.782;2023-06-22T07:36:53;24.60;99.90
56298;DHT22;42208;6.376;-10.782;2023-06-22T07:39:21;24.60;99.90
56298;DHT22;42208;6.376;-10.782;2023-06-22T07:41:50;24.60;99.90
56298;DHT22;42208;6.376;-10.782;2023-06-22T07:44:18;24.70;99.90
56298;DHT22;42208;6.376;-10.782;2023-06-22T07:46:47;24.70;99.90
56298;DHT22;42208;6.376;-10.782;2023-06-22T07:49:17;24.80;99.90
56298;DHT22;42208;6.376;-10.782;2023-06-22T07:51:45;24.80;99.90
56298;DHT22;42208;6.376;-10.782;2023-06-22T07:54:14;24.70;99.90
56298;DHT22;42208;6.376;-10.782;2023-06-22T07:56:43;24.70;99.90
56298;DHT22;42208;6.376;-10.782;2023-06-22T07:59:11;24.70;99.90
56298;DHT22;42208;6.376;-10.782;2023-06-22T08:01:39;24.70;99.90
56298;DHT22;42208;6.376;-10.782;2023-06-22T08:04:08;24.70;99.90
56298;DHT22;42208;6.376;-10.782;2023-06-22T08:06:37;24.80;99.90
56298;DHT22;42208;6.376;-10.782;2023-06-22T08:09:05;24.80;99.90
56298;DHT22;42208;6.376;-10.782;2023-06-22T08:11:33;24.90;99.90
56298;DHT22;42208;6.376;-10.782;2023-06-22T08:14:02;24.90;99.90
56298;DHT22;42208;6.376;-10.782;2023-06-22T08:16:31;24.90;99.90
56298;DHT22;42208;6.376;-10.782;2023-06-22T08:18:59;24.90;99.90
56298;DHT22;42208;6.376;-10.782;2023-06-22T08:21:28;25.00;99.90
56298;DHT22;42208;6.376;-10.782;2023-06-22T08:23:56;25.00;99.90
56298;DHT22;42208;6.376;-10.782;2023-06-22T08:26:25;25.00;99.90
56298;DHT22;42208;6.376;-10.782;2023-06-22T08:28:53;25.10;99.90
56298;DHT22;42208;6.376;-10.782;2023-06-22T08:31:22;25.10;99.90
56298;DHT22;42208;6.376;-10.782;2023-06-22T08:33:50;25.10;99.90
56298;DHT22;42208;6.376;-10.782;2023-06-22T08:36:19;25.20;99.90
56298;DHT22;42208;6.376;-10.782;2023-06-22T08:38:47;25.10;99.90
56298;DHT22;42208;6.376;-10.782;2023-06-22T08:41:16;25.20;99.90
56298;DHT22;42208;6.376;-10.782;2023-06-22T08:43:45;25.20;99.90
56298;DHT22;42208;6.376;-10.782;2023-06-22T08:46:14;25.30;99.90
56298;DHT22;42208;6.376;-10.782;2023-06-22T08:48:42;25.20;99.90
56298;DHT22;42208;6.376;-10.782;2023-06-22T08:51:11;25.30;99.90
56298;DHT22;42208;6.376;-10.782;2023-06-22T08:53:43;25.30;99.90
56298;DHT22;42208;6.376;-10.782;2023-06-22T08:56:11;25.30;99.90
56298;DHT22;42208;6.376;-10.782;2023-06-22T08:58:40;25.40;99.90
56298;DHT22;42208;6.376;-10.782;2023-06-22T09:01:08;25.40;99.90
56298;DHT22;42208;6.376;-10.782;2023-06-22T09:03:37;25.40;99.90
56298;DHT22;42208;6.376;-10.782;2023-06-22T09:06:05;25.40;99.90
56298;DHT22;42208;6.376;-10.782;2023-06-22T09:08:36;25.50;99.90
56298;DHT22;42208;6.376;-10.782;2023-06-22T09:11:05;25.50;99.90
56298;DHT22;42208;6.376;-10.782;2023-06-22T09:13:34;25.60;99.90
56298;DHT22;42208;6.376;-10.782;2023-06-22T09:16:02;25.60;99.90
56298;DHT22;42208;6.376;-10.782;2023-06-22T09:18:31;25.70;99.90
56298;DHT22;42208;6.376;-10.782;2023-06-22T09:21:00;25.70;99.90
56298;DHT22;42208;6.376;-10.782;2023-06-22T09:23:29;25.70;99.90
56298;DHT22;42208;6.376;-10.782;2023-06-22T09:25:58;25.80;99.90
56298;DHT22;42208;6.376;-10.782;2023-06-22T09:28:26;25.80;99.90
56298;DHT22;42208;6.376;-10.782;2023-06-22T09:30:55;25.80;99.90
56298;DHT22;42208;6.376;-10.782;2023-06-22T09:33:25;25.80;99.90
56298;DHT22;42208;6.376;-10.782;2023-06-22T09:35:58;25.80;99.90
56298;DHT22;42208;6.376;-10.782;2023-06-22T09:38:31;25.90;99.90
56298;DHT22;42208;6.376;-10.782;2023-06-22T09:41:00;25.90;99.90
56298;DHT22;42208;6.376;-10.782;2023-06-22T09:43:32;25.90;99.90
56298;DHT22;42208;6.376;-10.782;2023-06-22T09:46:00;26.00;99.90
56298;DHT22;42208;6.376;-10.782;2023-06-22T09:48:29;26.00;99.90
56298;DHT22;42208;6.376;-10.782;2023-06-22T09:50:59;26.00;99.90
56298;DHT22;42208;6.376;-10.782;2023-06-22T09:53:27;26.10;99.90
56298;DHT22;42208;6.376;-10.782;2023-06-22T09:55:59;26.20;99.90
56298;DHT22;42208;6.376;-10.782;2023-06-22T09:58:28;26.20;99.90
56298;DHT22;42208;6.376;-10.782;2023-06-22T10:00:56;26.30;99.90
56298;DHT22;42208;6.376;-10.782;2023-06-22T10:03:25;26.40;99.90
56298;DHT22;42208;6.376;-10.782;2023-06-22T10:05:54;26.50;99.90
56298;DHT22;42208;6.376;-10.782;2023-06-22T10:08:24;26.50;99.90
56298;DHT22;42208;6.376;-10.782;2023-06-22T10:10:52;26.50;99.90
56298;DHT22;42208;6.376;-10.782;2023-06-22T10:13:21;26.60;99.90
56298;DHT22;42208;6.376;-10.782;2023-06-22T10:15:49;26.70;99.90
56298;DHT22;42208;6.376;-10.782;2023-06-22T10:18:20;26.70;99.90
56298;DHT22;42208;6.376;-10.782;2023-06-22T10:20:51;26.80;99.90
56298;DHT22;42208;6.376;-10.782;2023-06-22T10:23:20;26.70;99.90
56298;DHT22;42208;6.376;-10.782;2023-06-22T10:25:49;26.80;99.90
56298;DHT22;42208;6.376;-10.782;2023-06-22T10:28:17;26.80;99.90
56298;DHT22;42208;6.376;-10.782;2023-06-22T10:30:46;26.80;99.90
56298;DHT22;42208;6.376;-10.782;2023-06-22T10:33:14;26.80;99.90
56298;DHT22;42208;6.376;-10.782;2023-06-22T10:35:43;26.80;99.90
56298;DHT22;42208;6.376;-10.782;2023-06-22T10:38:11;26.90;99.90
56298;DHT22;42208;6.376;-10.782;2023-06-22T10:40:40;26.80;99.90
56298;DHT22;42208;6.376;-10.782;2023-06-22T10:43:09;26.90;99.90
56298;DHT22;42208;6.376;-10.782;2023-06-22T10:45:38;26.80;99.90
56298;DHT22;42208;6.376;-10.782;2023-06-22T10:48:07;26.90;99.90
56298;DHT22;42208;6.376;-10.782;2023-06-22T10:50:37;26.90;99.90
56298;DHT22;42208;6.376;-10.782;2023-06-22T10:53:05;26.90;99.90
56298;DHT22;42208;6.376;-10.782;2023-06-22T10:55:34;26.90;99.90
56298;DHT22;42208;6.376;-10.782;2023-06-22T10:58:22;27.00;99.90
56298;DHT22;42208;6.376;-10.782;2023-06-22T11:00:51;27.00;99.90
56298;DHT22;42208;6.376;-10.782;2023-06-22T11:03:19;27.00;99.90
56298;DHT22;42208;6.376;-10.782;2023-06-22T11:05:48;27.00;99.90
56298;DHT22;42208;6.376;-10.782;2023-06-22T11:08:16;27.10;99.90
56298;DHT22;42208;6.376;-10.782;2023-06-22T11:10:45;27.10;99.90
56298;DHT22;42208;6.376;-10.782;2023-06-22T11:13:13;27.10;99.90
56298;DHT22;42208;6.376;-10.782;2023-06-22T11:15:42;27.20;99.90
56298;DHT22;42208;6.376;-10.782;2023-06-22T11:18:10;27.10;99.90
56298;DHT22;42208;6.376;-10.782;2023-06-22T11:20:39;27.20;99.90
56298;DHT22;42208;6.376;-10.782;2023-06-22T11:23:07;27.10;99.90
56298;DHT22;42208;6.376;-10.782;2023-06-22T11:25:36;27.20;99.90
56298;DHT22;42208;6.376;-10.782;2023-06-22T11:28:04;27.20;99.90
56298;DHT22;42208;6.376;-10.782;2023-06-22T11:30:33;27.30;99.90
56298;DHT22;42208;6.376;-10.782;2023-06-22T11:33:01;27.30;99.90
56298;DHT22;42208;6.376;-10.782;2023-06-22T11:35:30;27.30;99.90
56298;DHT22;42208;6.376;-10.782;2023-06-22T11:37:59;27.20;99.90
56298;DHT22;42208;6.376;-10.782;2023-06-22T11:40:27;27.20;99.90
56298;DHT22;42208;6.376;-10.782;2023-06-22T11:42:59;27.30;99.90
56298;DHT22;42208;6.376;-10.782;2023-06-22T11:45:28;27.30;99.90
56298;DHT22;42208;6.376;-10.782;2023-06-22T11:47:58;27.30;99.90
56298;DHT22;42208;6.376;-10.782;2023-06-22T11:50:26;27.40;99.90
56298;DHT22;42208;6.376;-10.782;2023-06-22T11:52:55;27.40;99.90
56298;DHT22;42208;6.376;-10.782;2023-06-22T11:55:25;27.50;99.90
56298;DHT22;42208;6.376;-10.782;2023-06-22T11:57:57;27.50;99.90
56298;DHT22;42208;6.376;-10.782;2023-06-22T12:00:27;27.60;99.90
56298;DHT22;42208;6.376;-10.782;2023-06-22T12:03:12;27.60;99.90
56298;DHT22;42208;6.376;-10.782;2023-06-22T12:05:41;27.60;99.90
56298;DHT22;42208;6.376;-10.782;2023-06-22T12:08:09;27.70;99.90
56298;DHT22;42208;6.376;-10.782;2023-06-22T12:10:40;27.70;99.90
56298;DHT22;42208;6.376;-10.782;2023-06-22T12:13:13;27.70;99.90
56298;DHT22;42208;6.376;-10.782;2023-06-22T12:15:42;27.80;99.90
56298;DHT22;42208;6.376;-10.782;2023-06-22T12:18:11;27.80;99.90
56298;DHT22;42208;6.376;-10.782;2023-06-22T12:20:41;27.80;99.90
56298;DHT22;42208;6.376;-10.782;2023-06-22T12:23:09;27.80;99.90
56298;DHT22;42208;6.376;-10.782;2023-06-22T12:25:39;27.80;99.90
56298;DHT22;42208;6.376;-10.782;2023-06-22T12:28:08;27.80;99.90
56298;DHT22;42208;6.376;-10.782;2023-06-22T12:30:37;27.90;99.90
56298;DHT22;42208;6.376;-10.782;2023-06-22T12:33:05;27.90;99.90
56298;DHT22;42208;6.376;-10.782;2023-06-22T12:35:35;27.90;99.90
56298;DHT22;42208;6.376;-10.782;2023-06-22T12:38:03;28.00;99.90
56298;DHT22;42208;6.376;-10.782;2023-06-22T12:40:32;27.90;99.90
56298;DHT22;42208;6.376;-10.782;2023-06-22T12:43:00;28.00;99.90
56298;DHT22;42208;6.376;-10.782;2023-06-22T12:45:29;28.00;99.90
56298;DHT22;42208;6.376;-10.782;2023-06-22T12:47:57;28.10;99.90
56298;DHT22;42208;6.376;-10.782;2023-06-22T12:50:26;28.20;99.90
56298;DHT22;42208;6.376;-10.782;2023-06-22T12:52:56;28.20;99.90
56298;DHT22;42208;6.376;-10.782;2023-06-22T12:55:24;28.30;99.90
56298;DHT22;42208;6.376;-10.782;2023-06-22T12:57:54;28.30;99.90
56298;DHT22;42208;6.376;-10.782;2023-06-22T13:00:27;28.30;99.90
56298;DHT22;42208;6.376;-10.782;2023-06-22T13:02:57;28.30;99.90
56298;DHT22;42208;6.376;-10.782;2023-06-22T13:05:26;28.30;99.90
56298;DHT22;42208;6.376;-10.782;2023-06-22T13:07:55;28.20;99.90
56298;DHT22;42208;6.376;-10.782;2023-06-22T13:10:23;28.20;99.90
56298;DHT22;42208;6.376;-10.782;2023-06-22T13:12:52;28.10;99.90
56298;DHT22;42208;6.376;-10.782;2023-06-22T13:15:20;28.20;99.90
56298;DHT22;42208;6.376;-10.782;2023-06-22T13:17:49;28.20;99.90
56298;DHT22;42208;6.376;-10.782;2023-06-22T13:20:24;28.30;99.90
56298;DHT22;42208;6.376;-10.782;2023-06-22T13:22:53;28.30;99.90
56298;DHT22;42208;6.376;-10.782;2023-06-22T13:25:21;28.30;99.90
56298;DHT22;42208;6.376;-10.782;2023-06-22T13:27:50;28.30;99.90
56298;DHT22;42208;6.376;-10.782;2023-06-22T13:30:18;28.40;99.90
56298;DHT22;42208;6.376;-10.782;2023-06-22T13:32:47;28.40;99.90
56298;DHT22;42208;6.376;-10.782;2023-06-22T13:35:16;28.50;99.90
56298;DHT22;42208;6.376;-10.782;2023-06-22T13:37:44;28.40;99.90
56298;DHT22;42208;6.376;-10.782;2023-06-22T13:40:14;28.40;99.90
56298;DHT22;42208;6.376;-10.782;2023-06-22T13:42:44;28.30;99.90
56298;DHT22;42208;6.376;-10.782;2023-06-22T13:45:12;28.40;99.90
56298;DHT22;42208;6.376;-10.782;2023-06-22T13:47:41;28.40;99.90
56298;DHT22;42208;6.376;-10.782;2023-06-22T13:50:10;28.40;99.90
56298;DHT22;42208;6.376;-10.782;2023-06-22T13:52:39;28.50;99.90
56298;DHT22;42208;6.376;-10.782;2023-06-22T13:55:08;28.60;99.90
56298;DHT22;42208;6.376;-10.782;2023-06-22T13:57:37;28.80;99.90
56298;DHT22;42208;6.376;-10.782;2023-06-22T14:00:06;28.70;99.90
56298;DHT22;42208;6.376;-10.782;2023-06-22T14:02:38;28.80;99.90
56298;DHT22;42208;6.376;-10.782;2023-06-22T14:05:07;29.00;99.90
56298;DHT22;42208;6.376;-10.782;2023-06-22T14:07:36;29.00;99.90
56298;DHT22;42208;6.376;-10.782;2023-06-22T14:10:05;29.10;99.90
56298;DHT22;42208;6.376;-10.782;2023-06-22T14:12:34;29.20;99.90
56298;DHT22;42208;6.376;-10.782;2023-06-22T14:15:05;29.10;99.90
56298;DHT22;42208;6.376;-10.782;2023-06-22T14:17:35;29.00;99.90
56298;DHT22;42208;6.376;-10.782;2023-06-22T14:20:04;29.00;99.90
56298;DHT22;42208;6.376;-10.782;2023-06-22T14:22:36;29.10;99.90
56298;DHT22;42208;6.376;-10.782;2023-06-22T14:25:05;29.20;99.90
56298;DHT22;42208;6.376;-10.782;2023-06-22T14:27:34;29.20;99.90
56298;DHT22;42208;6.376;-10.782;2023-06-22T14:30:02;29.20;99.90
56298;DHT22;42208;6.376;-10.782;2023-06-22T14:32:33;29.30;99.90
56298;DHT22;42208;6.376;-10.782;2023-06-22T14:35:03;29.30;99.90
56298;DHT22;42208;6.376;-10.782;2023-06-22T14:37:31;29.40;99.90
56298;DHT22;42208;6.376;-10.782;2023-06-22T14:40:00;29.40;99.90
56298;DHT22;42208;6.376;-10.782;2023-06-22T14:42:29;29.40;99.90
56298;DHT22;42208;6.376;-10.782;2023-06-22T14:44:57;29.30;99.90
56298;DHT22;42208;6.376;-10.782;2023-06-22T14:47:26;29.40;99.90
56298;DHT22;42208;6.376;-10.782;2023-06-22T14:49:57;29.40;99.90
56298;DHT22;42208;6.376;-10.782;2023-06-22T14:52:27;29.40;99.90
56298;DHT22;42208;6.376;-10.782;2023-06-22T14:54:59;29.50;99.90
56298;DHT22;42208;6.376;-10.782;2023-06-22T14:57:28;29.70;99.90
56298;DHT22;42208;6.376;-10.782;2023-06-22T14:59:57;29.70;99.90
56298;DHT22;42208;6.376;-10.782;2023-06-22T15:02:26;29.50;99.90
56298;DHT22;42208;6.376;-10.782;2023-06-22T15:04:55;29.70;99.90
56298;DHT22;42208;6.376;-10.782;2023-06-22T15:07:24;29.70;99.90
56298;DHT22;42208;6.376;-10.782;2023-06-22T15:09:53;29.70;99.90
56298;DHT22;42208;6.376;-10.782;2023-06-22T15:12:22;29.80;99.90
56298;DHT22;42208;6.376;-10.782;2023-06-22T15:14:50;29.90;99.90
56298;DHT22;42208;6.376;-10.782;2023-06-22T15:17:22;30.00;99.90
56298;DHT22;42208;6.376;-10.782;2023-06-22T15:19:51;30.20;99.90
56298;DHT22;42208;6.376;-10.782;2023-06-22T15:22:25;30.30;99.90
56298;DHT22;42208;6.376;-10.782;2023-06-22T15:24:54;30.40;99.90
56298;DHT22;42208;6.376;-10.782;2023-06-22T15:27:22;30.60;99.90
56298;DHT22;42208;6.376;-10.782;2023-06-22T15:29:51;30.80;99.90
56298;DHT22;42208;6.376;-10.782;2023-06-22T15:32:20;30.90;99.90
56298;DHT22;42208;6.376;-10.782;2023-06-22T15:34:49;31.00;99.90
56298;DHT22;42208;6.376;-10.782;2023-06-22T15:37:17;30.90;99.90